Time;durP1;ratioP1;P1;durP2;ratioP2;P2;SDS_P1;SDS_P2;PMS_P1;PMS_P2;Temp;Humidity;BMP_temperature;BMP_pressure;BME280_temperature;BME280_humidity;BME280_pressure;Samples;Min_cycle;Max_cycle;Signal;HPM_P1;HPM_P2
2022/08/06 00:00:19;;;;;;;18.88;3.63;;;;;;;;;;6149833;23;20029;-43
2022/08/06 00:02:52;;;;;;;13.88;2.55;;;;;;;;;;6149364;23;20017;-57
2022/08/06 00:05:26;;;;;;;13.95;3.25;;;;;;;;;;6149887;23;20538;-57
2022/08/06 00:08:01;;;;;;;19.30;3.35;;;;;;;;;;6149137;23;20049;-56
2022/08/06 00:10:35;;;;;;;19.95;3.38;;;;;;;;;;6149820;23;20022;-57
2022/08/06 00:13:03;;;;;;;16.48;2.90;;;;;;;;;;6149714;23;20053;-55
2022/08/06 00:15:32;;;;;;;18.48;2.63;;;;;;;;;;6149472;23;20456;-58
2022/08/06 00:18:28;;;;;;;15.35;2.88;;;;;;;;;;6150414;23;20017;-45
2022/08/06 00:20:55;;;;;;;12.30;2.40;;;;;;;;;;6149043;23;20057;-62
2022/08/06 00:23:49;;;;;;;12.80;2.50;;;;;;;;;;6148501;23;20021;-63
2022/08/06 00:26:28;;;;;;;14.65;2.80;;;;;;;;;;6148992;23;20370;-63
2022/08/06 00:29:37;;;;;;;16.63;2.55;;;;;;;;;;6149756;23;20491;-63
2022/08/06 00:32:13;;;;;;;11.65;2.90;;;;;;;;;;6148696;23;20022;-61
2022/08/06 00:34:54;;;;;;;17.00;3.08;;;;;;;;;;6144184;23;20022;-63
2022/08/06 00:37:22;;;;;;;15.68;2.78;;;;;;;;;;6145286;23;20029;-57
2022/08/06 00:40:16;;;;;;;14.50;2.63;;;;;;;;;;6145502;23;20336;-58
2022/08/06 00:42:54;;;;;;;20.58;2.40;;;;;;;;;;6144169;23;20057;-58
2022/08/06 00:45:37;;;;;;;13.05;2.33;;;;;;;;;;6146349;23;20028;-58
2022/08/06 00:48:13;;;;;;;13.63;2.50;;;;;;;;;;6123993;23;20034;-59
2022/08/06 00:51:07;;;;;;;12.98;2.15;;;;;;;;;;6147857;23;20100;-59
2022/08/06 00:53:44;;;;;;;9.40;2.23;;;;;;;;;;6150521;23;20026;-58
2022/08/06 00:56:26;;;;;;;9.30;2.22;;;;;;;;;;6150098;23;20872;-45
2022/08/06 00:58:56;;;;;;;11.52;2.47;;;;;;;;;;6149878;23;20045;-57
2022/08/06 01:01:31;;;;;;;10.90;2.53;;;;;;;;;;6150160;23;20025;-57
2022/08/06 01:04:12;;;;;;;13.98;2.60;;;;;;;;;;6151527;23;20025;-58
2022/08/06 01:06:46;;;;;;;14.95;2.45;;;;;;;;;;6150363;23;20025;-57
2022/08/06 01:09:24;;;;;;;13.35;2.85;;;;;;;;;;6151352;23;20025;-57
2022/08/06 01:11:58;;;;;;;15.00;2.88;;;;;;;;;;6151095;23;20025;-57
2022/08/06 01:14:37;;;;;;;16.17;2.63;;;;;;;;;;6148914;23;20104;-57
2022/08/06 01:17:39;;;;;;;17.58;2.80;;;;;;;;;;6151073;23;20017;-57
2022/08/06 01:20:25;;;;;;;13.85;2.35;;;;;;;;;;6148736;23;20135;-56
2022/08/06 01:23:28;;;;;;;9.88;2.42;;;;;;;;;;6150300;23;20021;-56
2022/08/06 01:26:02;;;;;;;16.45;2.50;;;;;;;;;;6149391;23;20053;-57
2022/08/06 01:28:48;;;;;;;15.70;2.40;;;;;;;;;;6149926;23;20084;-57
2022/08/06 01:31:21;;;;;;;12.95;2.50;;;;;;;;;;6151036;23;20026;-44
2022/08/06 01:33:59;;;;;;;8.05;1.92;;;;;;;;;;6149852;23;20049;-54
2022/08/06 01:36:48;;;;;;;14.02;2.90;;;;;;;;;;6150061;23;20092;-63
2022/08/06 01:39:25;;;;;;;15.38;2.90;;;;;;;;;;6150343;23;20033;-63
2022/08/06 01:42:13;;;;;;;17.35;2.47;;;;;;;;;;6149288;23;20061;-63
2022/08/06 01:45:06;;;;;;;12.13;3.00;;;;;;;;;;6147848;23;20033;-63
2022/08/06 01:47:36;;;;;;;12.13;2.60;;;;;;;;;;6149593;23;20030;-63
2022/08/06 01:50:22;;;;;;;10.90;2.90;;;;;;;;;;6148331;23;20071;-59
2022/08/06 01:52:56;;;;;;;12.00;2.78;;;;;;;;;;6150427;23;20057;-61
2022/08/06 01:55:31;;;;;;;16.13;2.80;;;;;;;;;;6149508;23;20531;-62
2022/08/06 01:58:22;;;;;;;15.82;2.85;;;;;;;;;;6150125;23;20034;-62
2022/08/06 02:00:58;;;;;;;10.82;3.17;;;;;;;;;;6149900;23;20025;-62
2022/08/06 02:03:30;;;;;;;11.60;3.00;;;;;;;;;;6150177;23;20029;-62
2022/08/06 02:06:22;;;;;;;16.17;3.10;;;;;;;;;;6149178;23;20021;-62
2022/08/06 02:08:57;;;;;;;14.48;3.17;;;;;;;;;;6150594;23;20026;-58
2022/08/06 02:11:54;;;;;;;10.70;2.30;;;;;;;;;;6148144;23;20024;-58
2022/08/06 02:14:32;;;;;;;10.35;2.30;;;;;;;;;;6149315;23;20026;-58
2022/08/06 02:17:10;;;;;;;12.45;2.45;;;;;;;;;;6150240;23;20331;-58
2022/08/06 02:19:47;;;;;;;14.88;3.20;;;;;;;;;;6149163;23;20021;-58
2022/08/06 02:22:39;;;;;;;13.52;2.53;;;;;;;;;;6150546;23;20053;-58
2022/08/06 02:25:11;;;;;;;15.30;2.47;;;;;;;;;;6149618;23;20104;-59
2022/08/06 02:28:00;;;;;;;11.23;2.72;;;;;;;;;;6148991;23;20025;-63
2022/08/06 02:30:33;;;;;;;13.25;3.33;;;;;;;;;;6148197;23;20029;-63
2022/08/06 02:33:09;;;;;;;15.60;2.58;;;;;;;;;;6122265;23;20076;-63
2022/08/06 02:35:39;;;;;;;16.27;2.70;;;;;;;;;;6148944;23;20018;-62
2022/08/06 02:38:19;;;;;;;22.15;2.72;;;;;;;;;;6151039;23;20030;-63
2022/08/06 02:40:59;;;;;;;11.98;3.03;;;;;;;;;;6149133;23;20021;-63
2022/08/06 02:43:37;;;;;;;11.98;2.33;;;;;;;;;;6147651;23;20075;-63
2022/08/06 02:46:34;;;;;;;9.35;2.22;;;;;;;;;;6150031;23;20029;-58
2022/08/06 02:49:03;;;;;;;11.07;2.47;;;;;;;;;;6149694;23;20029;-63
2022/08/06 02:51:40;;;;;;;10.57;2.53;;;;;;;;;;6149564;23;20058;-62
2022/08/06 02:54:39;;;;;;;16.38;2.80;;;;;;;;;;6149670;23;20096;-63
2022/08/06 02:57:18;;;;;;;14.13;2.75;;;;;;;;;;6150310;23;20025;-63
2022/08/06 02:59:47;;;;;;;14.52;2.33;;;;;;;;;;6149408;23;20057;-63
2022/08/06 03:02:23;;;;;;;13.48;2.65;;;;;;;;;;6148496;23;20084;-63
2022/08/06 03:04:54;;;;;;;11.98;2.60;;;;;;;;;;6148037;23;20041;-58
2022/08/06 03:07:32;;;;;;;13.23;3.03;;;;;;;;;;6147875;23;20028;-45
2022/08/06 03:10:03;;;;;;;11.05;2.30;;;;;;;;;;6147443;23;20097;-45
2022/08/06 03:12:41;;;;;;;21.17;2.78;;;;;;;;;;6149717;23;20455;-46
2022/08/06 03:15:10;;;;;;;13.23;2.80;;;;;;;;;;6148252;23;20021;-45
2022/08/06 03:18:06;;;;;;;10.88;2.30;;;;;;;;;;6130294;23;20100;-46
2022/08/06 03:20:34;;;;;;;12.23;2.92;;;;;;;;;;6149434;23;20136;-45
2022/08/06 03:23:17;;;;;;;16.55;2.42;;;;;;;;;;6151111;23;20025;-58
2022/08/06 03:25:48;;;;;;;18.20;2.72;;;;;;;;;;6149561;23;20025;-46
2022/08/06 03:28:30;;;;;;;7.13;2.45;;;;;;;;;;6148891;23;20084;-44
2022/08/06 03:30:57;;;;;;;11.43;1.85;;;;;;;;;;6148916;23;20623;-45
2022/08/06 03:33:33;;;;;;;9.82;2.35;;;;;;;;;;6147745;23;20072;-45
2022/08/06 03:36:21;;;;;;;11.10;2.42;;;;;;;;;;6149413;23;20057;-45
2022/08/06 03:38:56;;;;;;;15.32;2.42;;;;;;;;;;6148735;23;20056;-50
2022/08/06 03:41:25;;;;;;;13.20;2.40;;;;;;;;;;6149362;23;20093;-62
2022/08/06 03:44:01;;;;;;;15.73;2.28;;;;;;;;;;6148113;23;20478;-58
2022/08/06 03:47:01;;;;;;;9.38;1.95;;;;;;;;;;6150019;23;20021;-58
2022/08/06 03:49:31;;;;;;;13.40;2.65;;;;;;;;;;6138938;23;20084;-58
2022/08/06 03:52:08;;;;;;;10.27;2.33;;;;;;;;;;6150908;23;20403;-58
2022/08/06 03:54:42;;;;;;;17.00;2.30;;;;;;;;;;6149440;23;20072;-58
2022/08/06 03:57:19;;;;;;;11.43;2.20;;;;;;;;;;6149665;23;20340;-58
2022/08/06 04:00:00;;;;;;;11.07;2.15;;;;;;;;;;6150134;23;20028;-57
2022/08/06 04:02:39;;;;;;;10.13;2.10;;;;;;;;;;6150711;23;20032;-63
2022/08/06 04:05:18;;;;;;;10.55;1.65;;;;;;;;;;6148734;23;20462;-62
2022/08/06 04:08:00;;;;;;;6.78;1.60;;;;;;;;;;6149815;23;20376;-62
2022/08/06 04:10:33;;;;;;;8.60;1.50;;;;;;;;;;6148901;23;20017;-62
2022/08/06 04:13:24;;;;;;;5.47;1.52;;;;;;;;;;6149513;23;20028;-63
2022/08/06 04:16:14;;;;;;;6.28;1.35;;;;;;;;;;6145990;23;20558;-62
2022/08/06 04:19:00;;;;;;;6.82;1.35;;;;;;;;;;6148492;23;20028;-61
2022/08/06 04:21:27;;;;;;;4.72;1.10;;;;;;;;;;6145804;23;20061;-62
2022/08/06 04:24:21;;;;;;;5.90;1.83;;;;;;;;;;6150062;23;20053;-62
2022/08/06 04:27:05;;;;;;;8.40;1.52;;;;;;;;;;6147239;23;20025;-62
2022/08/06 04:29:52;;;;;;;7.68;1.13;;;;;;;;;;6151259;23;20017;-63
2022/08/06 04:32:28;;;;;;;3.17;1.15;;;;;;;;;;6152018;23;20076;-63
2022/08/06 04:35:12;;;;;;;12.48;1.27;;;;;;;;;;6149147;23;20021;-62
2022/08/06 04:37:59;;;;;;;9.48;1.25;;;;;;;;;;6151669;23;20024;-61
2022/08/06 04:40:33;;;;;;;5.88;1.00;;;;;;;;;;6150184;23;20053;-44
2022/08/06 04:43:19;;;;;;;10.80;1.20;;;;;;;;;;6149092;23;20084;-46
2022/08/06 04:46:04;;;;;;;5.95;0.90;;;;;;;;;;6151893;23;20021;-49
2022/08/06 04:48:45;;;;;;;4.78;1.25;;;;;;;;;;6150455;23;20056;-45
2022/08/06 04:51:27;;;;;;;5.30;0.88;;;;;;;;;;6149251;23;20021;-45
2022/08/06 04:54:15;;;;;;;4.03;1.05;;;;;;;;;;6151695;23;20113;-62
2022/08/06 04:56:58;;;;;;;5.57;0.77;;;;;;;;;;6148345;23;20022;-63
2022/08/06 04:59:45;;;;;;;3.42;1.13;;;;;;;;;;6151059;23;20097;-63
2022/08/06 05:02:20;;;;;;;6.35;1.23;;;;;;;;;;6149853;23;20028;-64
2022/08/06 05:04:55;;;;;;;4.53;1.20;;;;;;;;;;6150760;23;20128;-64
2022/08/06 05:07:31;;;;;;;4.55;0.82;;;;;;;;;;6149199;23;20040;-64
2022/08/06 05:10:20;;;;;;;4.15;0.93;;;;;;;;;;6150253;23;20024;-64
2022/08/06 05:12:56;;;;;;;8.25;1.35;;;;;;;;;;6150135;23;20340;-58
2022/08/06 05:15:35;;;;;;;4.55;1.02;;;;;;;;;;6151101;23;20017;-58
2022/08/06 05:18:26;;;;;;;5.43;1.30;;;;;;;;;;6151451;23;20029;-58
2022/08/06 05:21:23;;;;;;;10.35;1.40;;;;;;;;;;6149571;23;20485;-58
2022/08/06 05:24:24;;;;;;;4.15;0.82;;;;;;;;;;6150268;23;20024;-58
2022/08/06 05:27:12;;;;;;;3.88;1.10;;;;;;;;;;6148341;23;20044;-58
2022/08/06 05:29:52;;;;;;;7.30;1.58;;;;;;;;;;6151281;23;20057;-59
2022/08/06 05:32:24;;;;;;;4.95;1.50;;;;;;;;;;6127618;23;20034;-46
2022/08/06 05:35:00;;;;;;;7.03;1.70;;;;;;;;;;6150595;23;20021;-44
2022/08/06 05:37:33;;;;;;;5.85;1.33;;;;;;;;;;6150909;23;20025;-43
2022/08/06 05:40:33;;;;;;;3.95;1.40;;;;;;;;;;6150230;23;20085;-45
2022/08/06 05:43:20;;;;;;;9.82;1.65;;;;;;;;;;6151663;23;20025;-48
2022/08/06 05:46:18;;;;;;;7.30;1.63;;;;;;;;;;6150276;23;20133;-46
2022/08/06 05:48:55;;;;;;;8.55;1.52;;;;;;;;;;6150067;23;20057;-58
2022/08/06 05:51:52;;;;;;;5.60;1.10;;;;;;;;;;6150525;23;20064;-45
2022/08/06 05:54:27;;;;;;;4.38;1.02;;;;;;;;;;6150324;23;20045;-47
2022/08/06 05:57:11;;;;;;;7.45;1.20;;;;;;;;;;6149199;23;20758;-46
2022/08/06 05:59:42;;;;;;;;;;;;;;;;;;6150692;23;20017;-46
2022/08/06 06:02:25;;;;;;;8.82;1.15;;;;;;;;;;6148247;23;20331;-50
2022/08/06 06:04:53;;;;;;;6.63;1.25;;;;;;;;;;6149403;23;20061;-44
2022/08/06 06:07:48;;;;;;;10.27;2.10;;;;;;;;;;6150771;23;20100;-59
2022/08/06 06:10:36;;;;;;;3.90;1.00;;;;;;;;;;6150211;23;20436;-63
2022/08/06 06:13:23;;;;;;;6.72;1.20;;;;;;;;;;6149647;23;20025;-64
2022/08/06 06:16:29;;;;;;;6.85;1.45;;;;;;;;;;6147112;23;20032;-64
2022/08/06 06:19:24;;;;;;;10.10;1.30;;;;;;;;;;6150360;23;20064;-64
2022/08/06 06:22:08;;;;;;;6.68;1.00;;;;;;;;;;6147605;23;20025;-63
2022/08/06 06:25:11;;;;;;;6.25;1.17;;;;;;;;;;6149087;23;20025;-63
2022/08/06 06:28:00;;;;;;;2.55;0.70;;;;;;;;;;6129924;23;20586;-62
2022/08/06 06:30:57;;;;;;;4.65;0.82;;;;;;;;;;6149542;23;20084;-48
2022/08/06 06:33:36;;;;;;;4.53;1.10;;;;;;;;;;6150318;23;20049;-45
2022/08/06 06:36:47;;;;;;;6.63;1.53;;;;;;;;;;6150472;23;20028;-50
2022/08/06 06:39:31;;;;;;;5.68;1.42;;;;;;;;;;6132064;23;20285;-45
2022/08/06 06:42:12;;;;;;;7.22;1.05;;;;;;;;;;6150090;23;20025;-46
2022/08/06 06:45:04;;;;;;;5.90;1.20;;;;;;;;;;6149438;23;20108;-64
2022/08/06 06:48:03;;;;;;;5.13;1.35;;;;;;;;;;6149630;23;20137;-59
2022/08/06 06:50:32;;;;;;;4.13;1.00;;;;;;;;;;6149965;23;20036;-57
2022/08/06 06:53:18;;;;;;;5.53;0.90;;;;;;;;;;6151707;23;20092;-58
2022/08/06 06:55:52;;;;;;;5.32;1.10;;;;;;;;;;6149216;23;20036;-58
2022/08/06 06:58:41;;;;;;;3.25;0.98;;;;;;;;;;6150368;23;20033;-58
2022/08/06 07:01:15;;;;;;;7.25;1.17;;;;;;;;;;6150484;23;20029;-59
2022/08/06 07:03:56;;;;;;;4.22;1.00;;;;;;;;;;6149873;23;20025;-64
2022/08/06 07:06:35;;;;;;;5.78;1.17;;;;;;;;;;6150880;23;20028;-45
2022/08/06 07:09:16;;;;;;;6.30;1.08;;;;;;;;;;6149511;23;20333;-46
2022/08/06 07:12:03;;;;;;;9.65;1.30;;;;;;;;;;6149986;23;20096;-46
2022/08/06 07:14:48;;;;;;;2.63;1.02;;;;;;;;;;6150272;23;20033;-45
2022/08/06 07:17:25;;;;;;;8.45;1.10;;;;;;;;;;6149749;23;20065;-44
2022/08/06 07:20:15;;;;;;;6.30;1.40;;;;;;;;;;6150576;23;20029;-44
2022/08/06 07:22:45;;;;;;;5.63;1.17;;;;;;;;;;6150731;23;20096;-48
2022/08/06 07:25:40;;;;;;;3.50;0.95;;;;;;;;;;6149482;23;20362;-63
2022/08/06 07:28:29;;;;;;;3.85;0.80;;;;;;;;;;6150121;23;20024;-63
2022/08/06 07:31:06;;;;;;;5.70;1.30;;;;;;;;;;6149203;23;20026;-63
2022/08/06 07:33:37;;;;;;;6.10;1.40;;;;;;;;;;6150262;23;20057;-63
2022/08/06 07:36:31;;;;;;;3.28;0.80;;;;;;;;;;6129180;23;20030;-64
2022/08/06 07:39:05;;;;;;;7.65;1.27;;;;;;;;;;6150268;23;20026;-49
2022/08/06 07:41:41;;;;;;;4.78;1.08;;;;;;;;;;6150021;23;20561;-65
2022/08/06 07:44:29;;;;;;;4.30;0.98;;;;;;;;;;6149576;23;20362;-57
2022/08/06 07:47:26;;;;;;;4.07;1.15;;;;;;;;;;6149703;23;20026;-57
2022/08/06 07:50:13;;;;;;;8.20;1.17;;;;;;;;;;6150200;23;20021;-56
2022/08/06 07:52:56;;;;;;;4.10;1.08;;;;;;;;;;6150213;23;20076;-58
2022/08/06 07:55:25;;;;;;;4.63;1.23;;;;;;;;;;6149168;23;20022;-55
2022/08/06 07:58:06;;;;;;;4.20;1.35;;;;;;;;;;6149344;23;20026;-63
2022/08/06 08:00:35;;;;;;;6.43;1.30;;;;;;;;;;6149936;23;20475;-61
2022/08/06 08:06:31;;;;;;;4.10;1.00;;;;;;;;;;6149863;23;20025;-63
2022/08/06 08:09:14;;;;;;;5.93;1.35;;;;;;;;;;6149474;23;20475;-63
2022/08/06 08:11:59;;;;;;;6.22;1.27;;;;;;;;;;6149479;23;20501;-63
2022/08/06 08:14:53;;;;;;;4.50;1.00;;;;;;;;;;6149682;23;20100;-62
2022/08/06 08:17:25;;;;;;;5.97;1.00;;;;;;;;;;6148736;23;20025;-58
2022/08/06 08:20:09;;;;;;;3.40;0.80;;;;;;;;;;6149695;23;20043;-57
2022/08/06 08:22:43;;;;;;;6.93;1.73;;;;;;;;;;6149511;23;20028;-57
2022/08/06 08:25:18;;;;;;;5.43;1.05;;;;;;;;;;6149427;23;20018;-55
2022/08/06 08:28:12;;;;;;;2.42;0.70;;;;;;;;;;6148948;23;20065;-56
2022/08/06 08:30:53;;;;;;;2.33;0.90;;;;;;;;;;6149535;23;20482;-57
2022/08/06 08:33:21;;;;;;;3.65;1.00;;;;;;;;;;6150328;23;20021;-55
2022/08/06 08:36:00;;;;;;;5.53;1.35;;;;;;;;;;6149432;23;20482;-46
2022/08/06 08:38:31;;;;;;;2.97;0.75;;;;;;;;;;6149404;23;20025;-56
2022/08/06 08:41:17;;;;;;;8.63;1.52;;;;;;;;;;6148986;23;20033;-57
2022/08/06 08:43:53;;;;;;;4.43;0.60;;;;;;;;;;6150180;23;20025;-55
2022/08/06 08:46:34;;;;;;;6.00;1.30;;;;;;;;;;6148486;23;20064;-55
2022/08/06 08:49:13;;;;;;;5.13;1.00;;;;;;;;;;6149566;23;20332;-56
2022/08/06 08:51:49;;;;;;;5.60;1.15;;;;;;;;;;6149380;23;20416;-55
2022/08/06 08:54:20;;;;;;;3.95;1.25;;;;;;;;;;6148818;23;20388;-47
2022/08/06 08:56:54;;;;;;;7.10;1.13;;;;;;;;;;6149948;23;20017;-62
2022/08/06 08:59:41;;;;;;;7.30;0.80;;;;;;;;;;6149223;23;20105;-63
2022/08/06 09:02:27;;;;;;;2.35;1.00;;;;;;;;;;6149560;23;20033;-63
2022/08/06 09:04:59;;;;;;;2.95;0.85;;;;;;;;;;6149557;23;20101;-63
2022/08/06 09:07:37;;;;;;;4.03;1.10;;;;;;;;;;6149181;23;20025;-63
2022/08/06 09:10:09;;;;;;;2.40;0.73;;;;;;;;;;6124835;23;20026;-63
2022/08/06 09:12:42;;;;;;;4.78;1.05;;;;;;;;;;6149936;23;20426;-58
2022/08/06 09:15:12;;;;;;;8.27;1.52;;;;;;;;;;6151393;23;20481;-59
2022/08/06 09:17:43;;;;;;;8.90;1.70;;;;;;;;;;6151719;23;20053;-59
2022/08/06 09:20:37;;;;;;;6.13;0.98;;;;;;;;;;6152385;23;20342;-59
2022/08/06 09:23:12;;;;;;;8.15;1.92;;;;;;;;;;6151668;23;20033;-59
2022/08/06 09:25:48;;;;;;;3.55;0.90;;;;;;;;;;6146339;23;20755;-59
2022/08/06 09:28:54;;;;;;;3.10;0.63;;;;;;;;;;6147645;23;20057;-59
2022/08/06 09:31:48;;;;;;;4.68;1.23;;;;;;;;;;6149507;23;20022;-57
2022/08/06 09:34:20;;;;;;;6.20;1.33;;;;;;;;;;6151612;23;20100;-64
2022/08/06 09:37:05;;;;;;;4.10;1.10;;;;;;;;;;6151308;23;20151;-64
2022/08/06 09:39:39;;;;;;;7.65;0.90;;;;;;;;;;6150714;23;20025;-64
2022/08/06 09:42:40;;;;;;;3.13;1.10;;;;;;;;;;6151429;23;20092;-64
2022/08/06 09:45:09;;;;;;;5.80;0.90;;;;;;;;;;6150358;23;20073;-65
2022/08/06 09:48:09;;;;;;;4.07;0.57;;;;;;;;;;6150729;23;20027;-64
2022/08/06 09:50:46;;;;;;;4.38;1.10;;;;;;;;;;6151149;23;20029;-64
2022/08/06 09:53:22;;;;;;;4.03;0.80;;;;;;;;;;6151228;23;20130;-64
2022/08/06 09:56:17;;;;;;;3.00;0.80;;;;;;;;;;6150421;23;20025;-64
2022/08/06 09:59:20;;;;;;;4.15;0.90;;;;;;;;;;6151264;23;20030;-63
2022/08/06 10:01:49;;;;;;;4.05;0.85;;;;;;;;;;6146417;23;20076;-64
2022/08/06 10:04:25;;;;;;;2.67;0.75;;;;;;;;;;6152130;23;20069;-65
2022/08/06 10:07:04;;;;;;;8.88;1.17;;;;;;;;;;6150893;23;20017;-65
2022/08/06 10:09:53;;;;;;;5.45;1.02;;;;;;;;;;6151064;23;20084;-65
2022/08/06 10:12:22;;;;;;;5.40;1.13;;;;;;;;;;6151424;23;20017;-65
2022/08/06 10:15:05;;;;;;;6.50;1.25;;;;;;;;;;6151023;23;20034;-64
2022/08/06 10:17:34;;;;;;;2.75;0.90;;;;;;;;;;6149679;23;20477;-64
2022/08/06 10:20:19;;;;;;;3.03;0.70;;;;;;;;;;6151181;23;20017;-64
2022/08/06 10:22:59;;;;;;;2.72;0.75;;;;;;;;;;6150475;23;20509;-65
2022/08/06 10:25:32;;;;;;;1.83;0.55;;;;;;;;;;6150914;23;20021;-60
2022/08/06 10:28:18;;;;;;;3.97;0.70;;;;;;;;;;6114937;23;20046;-59
2022/08/06 10:30:55;;;;;;;2.13;0.65;;;;;;;;;;6119734;23;20490;-58
2022/08/06 10:33:34;;;;;;;1.95;0.60;;;;;;;;;;6121158;23;20467;-58
2022/08/06 10:36:14;;;;;;;3.95;1.20;;;;;;;;;;6097914;23;20057;-59
2022/08/06 10:38:50;;;;;;;3.53;0.82;;;;;;;;;;6120645;23;20029;-58
2022/08/06 10:41:30;;;;;;;5.72;1.20;;;;;;;;;;6096906;23;20029;-59
2022/08/06 10:44:17;;;;;;;3.90;0.95;;;;;;;;;;6121379;23;20024;-57
2022/08/06 10:46:59;;;;;;;4.40;1.02;;;;;;;;;;6121188;23;20037;-66
2022/08/06 10:49:26;;;;;;;3.35;0.80;;;;;;;;;;6121321;23;20050;-66
2022/08/06 10:52:20;;;;;;;6.05;0.77;;;;;;;;;;6120847;23;20105;-65
2022/08/06 10:54:51;;;;;;;2.78;0.80;;;;;;;;;;6121002;23;20022;-65
2022/08/06 10:57:35;;;;;;;4.90;0.90;;;;;;;;;;6120360;23;20531;-64
2022/08/06 11:00:04;;;;;;;2.55;0.68;;;;;;;;;;6119971;23;20046;-65
2022/08/06 11:02:46;;;;;;;4.85;1.15;;;;;;;;;;6096683;23;20081;-57
2022/08/06 11:05:25;;;;;;;2.42;0.93;;;;;;;;;;6121362;23;20018;-55
2022/08/06 11:08:31;;;;;;;3.10;1.00;;;;;;;;;;6120198;23;20022;-56
2022/08/06 11:11:13;;;;;;;4.32;0.90;;;;;;;;;;6120657;23;20029;-56
2022/08/06 11:14:01;;;;;;;5.18;1.00;;;;;;;;;;6120770;23;20061;-57
2022/08/06 11:16:30;;;;;;;2.65;0.52;;;;;;;;;;6122013;23;20022;-56
2022/08/06 11:19:09;;;;;;;5.70;1.02;;;;;;;;;;6121294;23;20131;-57
2022/08/06 11:21:41;;;;;;;3.38;0.65;;;;;;;;;;6120183;23;20504;-66
2022/08/06 11:24:30;;;;;;;5.40;1.08;;;;;;;;;;6121865;23;20106;-62
2022/08/06 11:27:03;;;;;;;6.22;1.20;;;;;;;;;;6121053;23;20543;-62
2022/08/06 11:30:19;;;;;;;3.05;0.85;;;;;;;;;;6149706;23;20021;-62
2022/08/06 11:32:53;;;;;;;2.90;0.85;;;;;;;;;;6059810;23;20023;-63
2022/08/06 11:35:32;;;;;;;2.97;0.73;;;;;;;;;;6146034;23;20026;-62
2022/08/06 11:38:12;;;;;;;7.35;1.10;;;;;;;;;;6151031;23;20033;-48
2022/08/06 11:40:59;;;;;;;2.08;0.75;;;;;;;;;;6149697;23;20088;-49
2022/08/06 11:43:41;;;;;;;2.83;1.00;;;;;;;;;;6149763;23;20506;-49
2022/08/06 11:46:35;;;;;;;1.75;0.82;;;;;;;;;;6151129;23;20025;-48
2022/08/06 11:49:24;;;;;;;2.38;0.85;;;;;;;;;;6127965;23;20419;-50
2022/08/06 11:52:30;;;;;;;6.25;0.90;;;;;;;;;;6150058;23;20348;-52
2022/08/06 11:55:06;;;;;;;3.40;0.75;;;;;;;;;;6151004;23;20049;-50
2022/08/06 11:58:12;;;;;;;4.93;1.10;;;;;;;;;;6150610;23;20325;-64
2022/08/06 12:00:55;;;;;;;5.28;0.75;;;;;;;;;;6150683;23;20024;-51
2022/08/06 12:03:49;;;;;;;4.43;0.90;;;;;;;;;;6148702;23;20031;-48
2022/08/06 12:06:23;;;;;;;4.63;0.90;;;;;;;;;;6149897;23;20029;-50
2022/08/06 12:09:06;;;;;;;4.60;0.98;;;;;;;;;;6150301;23;20356;-46
2022/08/06 12:11:36;;;;;;;4.50;1.05;;;;;;;;;;6149707;23;20527;-48
2022/08/06 12:14:40;;;;;;;4.88;0.93;;;;;;;;;;6149801;23;20021;-51
2022/08/06 12:17:16;;;;;;;5.20;1.27;;;;;;;;;;6150026;23;20100;-62
2022/08/06 12:20:00;;;;;;;4.28;0.90;;;;;;;;;;6149766;23;20026;-61
2022/08/06 12:22:30;;;;;;;4.97;1.08;;;;;;;;;;6150008;23;20096;-61
2022/08/06 12:25:10;;;;;;;5.05;1.13;;;;;;;;;;6150039;23;20096;-61
2022/08/06 12:27:47;;;;;;;2.92;0.75;;;;;;;;;;6149137;23;20025;-61
2022/08/06 12:30:28;;;;;;;3.28;0.80;;;;;;;;;;6149894;23;20029;-61
2022/08/06 12:33:04;;;;;;;5.13;0.90;;;;;;;;;;6149836;23;20028;-61
2022/08/06 12:35:54;;;;;;;2.60;0.77;;;;;;;;;;6149909;23;20029;-46
2022/08/06 12:38:24;;;;;;;3.85;1.13;;;;;;;;;;6149562;23;20029;-57
2022/08/06 12:41:00;;;;;;;4.47;1.05;;;;;;;;;;6149987;23;20029;-56
2022/08/06 12:43:46;;;;;;;5.70;0.98;;;;;;;;;;6149738;23;20024;-58
2022/08/06 12:46:24;;;;;;;2.95;0.80;;;;;;;;;;6149738;23;20104;-57
2022/08/06 12:48:57;;;;;;;3.53;0.93;;;;;;;;;;6150806;23;20568;-57
2022/08/06 12:51:40;;;;;;;2.55;0.93;;;;;;;;;;6150290;23;20049;-62
2022/08/06 12:54:28;;;;;;;4.97;1.63;;;;;;;;;;6152169;23;20025;-57
2022/08/06 12:57:06;;;;;;;3.78;1.30;;;;;;;;;;6150889;23;20021;-57
2022/08/06 12:59:34;;;;;;;4.82;0.98;;;;;;;;;;6152359;23;20056;-57
2022/08/06 13:02:10;;;;;;;3.53;0.80;;;;;;;;;;6151171;23;20351;-57
2022/08/06 13:04:56;;;;;;;5.47;0.80;;;;;;;;;;6150337;23;20467;-57
2022/08/06 13:07:23;;;;;;;3.70;0.85;;;;;;;;;;6150095;23;20017;-57
2022/08/06 13:10:11;;;;;;;2.35;0.70;;;;;;;;;;6151786;23;20022;-58
2022/08/06 13:13:02;;;;;;;4.20;1.08;;;;;;;;;;6150145;23;20021;-66
2022/08/06 13:16:04;;;;;;;6.10;1.00;;;;;;;;;;6151189;23;20100;-66
2022/08/06 13:18:33;;;;;;;5.47;1.50;;;;;;;;;;6125501;23;20049;-66
2022/08/06 13:21:19;;;;;;;2.35;0.63;;;;;;;;;;6151170;23;20464;-65
2022/08/06 13:23:48;;;;;;;3.42;0.90;;;;;;;;;;6151447;23;20021;-67
2022/08/06 13:26:24;;;;;;;4.03;0.73;;;;;;;;;;6151640;23;20025;-66
2022/08/06 13:29:18;;;;;;;3.65;0.98;;;;;;;;;;6149584;23;20034;-50
2022/08/06 13:32:12;;;;;;;5.22;0.98;;;;;;;;;;6150966;23;20108;-58
2022/08/06 13:35:10;;;;;;;4.80;1.05;;;;;;;;;;6148590;23;20017;-59
2022/08/06 13:37:48;;;;;;;4.40;0.82;;;;;;;;;;6150962;23;20120;-62
2022/08/06 13:40:45;;;;;;;3.55;0.77;;;;;;;;;;6151145;23;20024;-58
2022/08/06 13:43:43;;;;;;;3.30;0.55;;;;;;;;;;6150438;23;20022;-58
2022/08/06 13:46:25;;;;;;;2.13;0.90;;;;;;;;;;6150801;23;20026;-49
2022/08/06 13:49:00;;;;;;;5.40;0.70;;;;;;;;;;6150738;23;20459;-50
2022/08/06 13:51:38;;;;;;;2.38;0.90;;;;;;;;;;6152021;23;20024;-49
2022/08/06 13:54:24;;;;;;;4.68;0.98;;;;;;;;;;6151337;23;20021;-48
2022/08/06 13:56:52;;;;;;;3.35;0.75;;;;;;;;;;6150533;23;20376;-46
2022/08/06 13:59:28;;;;;;;4.32;0.70;;;;;;;;;;6150933;23;20037;-49
2022/08/06 14:02:11;;;;;;;9.07;0.80;;;;;;;;;;6151045;23;20028;-51
2022/08/06 14:04:44;;;;;;;5.03;0.75;;;;;;;;;;6150425;23;20056;-59
2022/08/06 14:07:16;;;;;;;3.95;1.08;;;;;;;;;;6151065;23;20026;-58
2022/08/06 14:09:43;;;;;;;2.70;0.88;;;;;;;;;;6151983;23;20021;-61
2022/08/06 14:12:37;;;;;;;1.75;0.60;;;;;;;;;;6149862;23;20021;-60
2022/08/06 14:15:06;;;;;;;6.20;0.93;;;;;;;;;;6150587;23;20026;-61
2022/08/06 14:17:42;;;;;;;7.13;0.80;;;;;;;;;;6151394;23;20057;-61
2022/08/06 14:20:12;;;;;;;4.65;0.73;;;;;;;;;;6150239;23;20387;-61
2022/08/06 14:22:50;;;;;;;4.63;0.70;;;;;;;;;;6149681;23;20022;-61
2022/08/06 14:25:26;;;;;;;5.25;1.05;;;;;;;;;;6151121;23;20150;-62
2022/08/06 14:28:20;;;;;;;6.13;1.30;;;;;;;;;;6150750;23;20025;-58
2022/08/06 14:31:20;;;;;;;3.20;0.65;;;;;;;;;;6151412;23;20063;-59
2022/08/06 14:33:55;;;;;;;4.55;1.00;;;;;;;;;;6151019;23;20041;-58
2022/08/06 14:36:29;;;;;;;3.17;0.88;;;;;;;;;;6151523;23;20026;-58
2022/08/06 14:39:04;;;;;;;2.78;0.47;;;;;;;;;;6150344;23;20021;-58
2022/08/06 14:44:57;;;;;;;3.50;0.60;;;;;;;;;;6151268;23;20025;-57
2022/08/06 14:47:31;;;;;;;2.88;0.73;;;;;;;;;;6150400;23;20095;-58
2022/08/06 14:50:19;;;;;;;2.40;0.57;;;;;;;;;;6150439;23;20022;-58
2022/08/06 14:53:04;;;;;;;2.00;0.47;;;;;;;;;;6150557;23;20033;-58
2022/08/06 14:55:42;;;;;;;2.97;0.70;;;;;;;;;;6150565;23;20132;-57
2022/08/06 14:58:34;;;;;;;5.45;0.60;;;;;;;;;;6151578;23;20065;-57
2022/08/06 15:01:01;;;;;;;2.35;0.63;;;;;;;;;;6151521;23;20025;-57
2022/08/06 15:03:43;;;;;;;5.03;0.75;;;;;;;;;;6150201;23;20022;-66
2022/08/06 15:06:12;;;;;;;1.10;0.60;;;;;;;;;;6150926;23;20130;-67
2022/08/06 15:08:55;;;;;;;3.25;0.90;;;;;;;;;;6150523;23;20072;-66
2022/08/06 15:11:22;;;;;;;4.28;1.10;;;;;;;;;;6149957;23;20071;-65
2022/08/06 15:14:17;;;;;;;4.05;0.98;;;;;;;;;;6150138;23;20025;-66
2022/08/06 15:16:45;;;;;;;2.85;1.15;;;;;;;;;;6151755;23;20025;-66
2022/08/06 15:19:47;;;;;;;6.15;1.20;;;;;;;;;;6150111;23;20060;-49
2022/08/06 15:22:16;;;;;;;3.42;0.80;;;;;;;;;;6150649;23;20018;-58
2022/08/06 15:25:05;;;;;;;4.90;1.00;;;;;;;;;;6150782;23;20021;-58
2022/08/06 15:27:48;;;;;;;2.15;0.75;;;;;;;;;;6149648;23;20021;-57
2022/08/06 15:30:29;;;;;;;3.53;0.98;;;;;;;;;;6151118;23;20028;-58
2022/08/06 15:33:00;;;;;;;2.65;0.90;;;;;;;;;;6149546;23;20032;-58
2022/08/06 15:35:38;;;;;;;1.40;0.50;;;;;;;;;;6150900;23;20033;-58
2022/08/06 15:38:25;;;;;;;4.13;1.10;;;;;;;;;;6150588;23;20029;-50
2022/08/06 15:41:04;;;;;;;6.18;0.93;;;;;;;;;;6149636;23;20028;-46
2022/08/06 15:43:40;;;;;;;3.72;1.02;;;;;;;;;;6150286;23;20026;-48
2022/08/06 15:46:19;;;;;;;;;;;;;;;;;;6150970;23;20068;-52
2022/08/06 15:48:55;;;;;;;4.97;1.10;;;;;;;;;;6148965;23;19927;-45
2022/08/06 15:51:29;;;;;;;9.02;1.70;;;;;;;;;;6150763;23;20021;-46
2022/08/06 15:53:58;;;;;;;10.07;1.67;;;;;;;;;;6149065;23;20025;-49
2022/08/06 15:56:26;;;;;;;5.30;1.35;;;;;;;;;;6149937;23;20021;-66
2022/08/06 15:59:18;;;;;;;11.88;1.67;;;;;;;;;;6149903;23;20026;-57
2022/08/06 16:01:53;;;;;;;10.30;1.92;;;;;;;;;;6149167;23;20033;-58
2022/08/06 16:04:45;;;;;;;9.82;2.17;;;;;;;;;;6150268;23;20021;-57
2022/08/06 16:07:14;;;;;;;6.55;1.67;;;;;;;;;;6150278;23;20105;-57
2022/08/06 16:09:49;;;;;;;8.23;1.67;;;;;;;;;;6148424;23;20101;-57